Time;durP1;ratioP1;P1;durP2;ratioP2;P2;SDS_P1;SDS_P2;PMS_P1;PMS_P2;Temp;Humidity;BMP_temperature;BMP_pressure;BME280_temperature;BME280_humidity;BME280_pressure;Samples;Min_cycle;Max_cycle;Signal;HPM_P1;HPM_P2
2022/11/21 00:00:32;;;;;;;66.38;43.42;;;7.00;99.90;;;;;;6093562;23;20109;-76
2022/11/21 00:03:01;;;;;;;61.45;41.33;;;7.00;99.90;;;;;;6093485;23;20018;-76
2022/11/21 00:05:29;;;;;;;67.13;42.00;;;7.00;99.90;;;;;;6129207;23;20074;-76
2022/11/21 00:07:57;;;;;;;69.15;41.97;;;7.00;99.90;;;;;;6093155;23;20075;-76
2022/11/21 00:10:27;;;;;;;67.43;41.78;;;7.00;99.90;;;;;;6109215;23;20018;-76
2022/11/21 00:12:55;;;;;;;62.58;40.15;;;7.10;99.90;;;;;;6101723;23;20101;-77
2022/11/21 00:15:25;;;;;;;68.07;40.97;;;7.00;99.90;;;;;;6094160;23;20405;-75
2022/11/21 00:17:53;;;;;;;56.67;37.78;;;7.00;99.90;;;;;;6129097;23;20014;-75
2022/11/21 00:20:22;;;;;;;60.67;39.35;;;7.00;99.90;;;;;;6094425;23;20072;-76
2022/11/21 00:22:50;;;;;;;55.70;38.13;;;7.00;99.90;;;;;;6093587;23;20045;-76
2022/11/21 00:25:17;;;;;;;58.38;38.13;;;6.90;99.90;;;;;;6129242;23;20063;-76
2022/11/21 00:27:45;;;;;;;58.70;37.75;;;6.90;99.90;;;;;;6127903;23;20461;-76
2022/11/21 00:30:13;;;;;;;55.70;37.72;;;6.90;99.90;;;;;;6093572;23;20423;-76
2022/11/21 00:32:42;;;;;;;63.05;37.42;;;6.90;99.90;;;;;;6129153;23;20021;-76
2022/11/21 00:35:10;;;;;;;57.08;36.15;;;6.90;99.90;;;;;;6093085;23;20047;-76
2022/11/21 00:37:37;;;;;;;54.60;35.67;;;6.90;99.90;;;;;;6093558;23;20022;-78
2022/11/21 00:40:05;;;;;;;56.30;36.45;;;6.90;99.90;;;;;;6093571;23;20393;-76
2022/11/21 00:42:33;;;;;;;57.05;36.85;;;6.90;99.90;;;;;;6095468;23;20045;-76
2022/11/21 00:45:00;;;;;;;55.75;36.78;;;6.80;99.90;;;;;;6131058;23;20014;-76
2022/11/21 00:47:28;;;;;;;53.50;34.17;;;6.80;99.90;;;;;;6130055;23;20018;-75
2022/11/21 00:49:57;;;;;;;55.30;35.25;;;6.80;99.90;;;;;;6128763;23;20021;-76
2022/11/21 00:52:24;;;;;;;57.17;35.45;;;6.70;99.90;;;;;;6093975;23;20048;-76
2022/11/21 00:54:51;;;;;;;55.47;33.90;;;6.70;99.90;;;;;;6093092;23;20018;-76
2022/11/21 00:57:19;;;;;;;51.97;33.63;;;6.60;99.90;;;;;;6092369;23;20426;-77
2022/11/21 00:59:46;;;;;;;51.38;34.15;;;6.70;99.90;;;;;;6093215;23;20039;-77
2022/11/21 01:02:14;;;;;;;53.40;34.58;;;6.60;99.90;;;;;;6093848;23;20041;-75
2022/11/21 01:04:41;;;;;;;53.67;34.00;;;6.60;99.90;;;;;;6128959;23;20489;-77
2022/11/21 01:07:10;;;;;;;48.35;34.13;;;6.60;99.90;;;;;;6137887;23;20025;-76
2022/11/21 01:09:37;;;;;;;52.55;34.30;;;6.60;99.90;;;;;;6096968;23;20026;-78
2022/11/21 01:12:05;;;;;;;48.63;30.00;;;6.50;99.90;;;;;;6136253;23;20014;-76
2022/11/21 01:14:33;;;;;;;46.78;30.08;;;6.50;99.90;;;;;;6100479;23;20457;-78
2022/11/21 01:17:00;;;;;;;48.47;31.48;;;6.40;99.90;;;;;;6134676;23;20452;-77
2022/11/21 01:19:27;;;;;;;43.95;29.20;;;6.40;99.90;;;;;;6129858;23;20453;-76
2022/11/21 01:21:55;;;;;;;44.20;28.92;;;6.50;99.90;;;;;;6129061;23;20412;-77
2022/11/21 01:24:24;;;;;;;48.38;29.98;;;6.50;99.90;;;;;;6130054;23;20021;-77
2022/11/21 01:26:53;;;;;;;45.60;29.85;;;6.50;99.90;;;;;;6109427;23;20010;-78
2022/11/21 01:29:20;;;;;;;50.10;30.58;;;6.50;99.90;;;;;;6157223;23;20009;-78
2022/11/21 01:31:48;;;;;;;43.38;29.05;;;6.50;99.90;;;;;;6146598;23;20378;-75
2022/11/21 01:34:17;;;;;;;47.67;29.38;;;6.50;99.90;;;;;;6100089;23;20029;-76
2022/11/21 01:36:50;;;;;;;47.88;29.17;;;6.50;99.90;;;;;;6131964;23;20014;-76
2022/11/21 01:39:17;;;;;;;48.55;30.95;;;6.50;99.90;;;;;;6096577;23;20354;-76
2022/11/21 01:41:46;;;;;;;48.80;31.05;;;6.50;99.90;;;;;;6131206;23;20018;-76
2022/11/21 01:44:19;;;;;;;46.97;29.70;;;6.50;99.90;;;;;;6129751;23;20457;-75
2022/11/21 01:46:46;;;;;;;45.88;29.73;;;6.50;99.90;;;;;;6093772;23;20335;-76
2022/11/21 01:49:17;;;;;;;50.15;32.42;;;6.50;99.90;;;;;;6093241;23;20045;-76
2022/11/21 01:51:52;;;;;;;49.42;31.35;;;6.50;99.90;;;;;;6129421;23;20068;-76
2022/11/21 01:54:26;;;;;;;50.90;32.50;;;6.50;99.90;;;;;;6129075;23;20022;-76
2022/11/21 01:56:59;;;;;;;50.58;33.28;;;6.40;99.90;;;;;;6127828;23;20026;-76
2022/11/21 01:59:32;;;;;;;53.45;34.17;;;6.40;99.90;;;;;;6093145;23;20022;-76
2022/11/21 02:02:02;;;;;;;51.35;34.05;;;6.50;99.90;;;;;;6113171;23;20025;-77
2022/11/21 02:04:33;;;;;;;52.45;34.58;;;6.40;99.90;;;;;;6175322;23;20059;-79
2022/11/21 02:07:04;;;;;;;51.72;34.35;;;6.40;99.90;;;;;;6162247;23;20032;-79
2022/11/21 02:09:33;;;;;;;54.80;34.72;;;6.40;99.90;;;;;;6168157;23;20018;-78
2022/11/21 02:12:05;;;;;;;53.88;32.72;;;6.40;99.90;;;;;;6165878;22;20021;-78
2022/11/21 02:14:33;;;;;;;52.30;33.92;;;6.50;99.90;;;;;;6166193;22;20043;-77
2022/11/21 02:17:05;;;;;;;51.60;31.98;;;6.50;99.90;;;;;;6162069;23;20030;-79
2022/11/21 02:19:41;;;;;;;52.10;32.88;;;6.50;99.90;;;;;;6167031;23;20043;-77
2022/11/21 02:22:16;;;;;;;53.60;33.65;;;6.50;99.90;;;;;;6169084;22;20018;-78
2022/11/21 02:24:46;;;;;;;52.63;33.40;;;6.40;99.90;;;;;;6169524;22;20014;-78
2022/11/21 02:27:16;;;;;;;51.80;32.63;;;6.40;99.90;;;;;;6166824;23;20043;-78
2022/11/21 02:29:44;;;;;;;48.50;29.35;;;6.40;99.90;;;;;;6168877;22;20043;-76
2022/11/21 02:32:21;;;;;;;48.53;30.33;;;6.40;99.90;;;;;;6170638;23;20028;-78
2022/11/21 02:34:48;;;;;;;47.70;30.92;;;6.40;99.90;;;;;;6171344;23;20016;-78
2022/11/21 02:37:17;;;;;;;48.15;31.08;;;6.40;99.90;;;;;;6170029;22;20049;-79
2022/11/21 02:39:47;;;;;;;46.33;29.85;;;6.40;99.90;;;;;;6160076;22;20028;-78
2022/11/21 02:42:21;;;;;;;49.97;29.90;;;6.40;99.90;;;;;;6152618;23;20055;-75
2022/11/21 02:44:55;;;;;;;45.78;29.48;;;6.40;99.90;;;;;;6160615;22;20281;-79
2022/11/21 02:47:24;;;;;;;48.17;29.08;;;6.40;99.90;;;;;;6157349;22;20090;-79
2022/11/21 02:49:56;;;;;;;47.45;30.35;;;6.30;99.90;;;;;;6157198;23;20026;-76
2022/11/21 02:52:24;;;;;;;44.85;29.83;;;6.30;99.90;;;;;;6157464;22;20013;-77
2022/11/21 02:54:51;;;;;;;46.20;29.83;;;6.30;99.90;;;;;;6148006;23;20021;-78
2022/11/21 02:57:22;;;;;;;44.67;29.55;;;6.30;99.90;;;;;;6156593;23;20092;-78
2022/11/21 02:59:49;;;;;;;45.90;29.00;;;6.30;99.90;;;;;;6157821;22;20018;-78
2022/11/21 03:02:16;;;;;;;40.90;27.58;;;6.30;99.90;;;;;;6156749;23;20063;-78
2022/11/21 03:04:44;;;;;;;44.20;27.90;;;6.30;99.90;;;;;;6147417;23;20456;-78
2022/11/21 03:07:11;;;;;;;42.92;28.08;;;6.30;99.90;;;;;;6156461;23;20045;-80
2022/11/21 03:09:38;;;;;;;45.40;27.52;;;6.40;99.90;;;;;;6157032;23;20429;-78
2022/11/21 03:12:07;;;;;;;39.67;26.35;;;6.40;99.90;;;;;;6156846;23;20067;-79
2022/11/21 03:14:36;;;;;;;42.13;26.70;;;6.40;99.90;;;;;;6120778;23;20441;-78
2022/11/21 03:17:04;;;;;;;40.08;26.55;;;6.40;99.90;;;;;;6156575;22;20018;-78
2022/11/21 03:19:32;;;;;;;41.22;26.85;;;6.50;99.90;;;;;;6157252;22;20018;-77
2022/11/21 03:21:59;;;;;;;40.85;26.52;;;6.50;99.90;;;;;;6158405;23;20442;-77
2022/11/21 03:24:26;;;;;;;39.38;25.23;;;6.50;99.90;;;;;;6167304;23;20080;-79
2022/11/21 03:26:53;;;;;;;41.42;26.73;;;6.50;99.90;;;;;;6156683;23;20018;-79
2022/11/21 03:29:21;;;;;;;41.80;25.63;;;6.50;99.90;;;;;;6147596;23;20149;-78
2022/11/21 03:31:49;;;;;;;42.92;26.30;;;6.50;99.90;;;;;;6159652;23;20017;-77
2022/11/21 03:34:16;;;;;;;39.80;25.23;;;6.50;99.90;;;;;;6156224;23;20087;-79
2022/11/21 03:36:44;;;;;;;38.70;25.65;;;6.50;99.90;;;;;;6157000;23;20026;-81
2022/11/21 03:39:11;;;;;;;41.28;27.05;;;6.50;99.90;;;;;;6120742;23;20021;-79
2022/11/21 03:41:39;;;;;;;39.45;25.63;;;6.50;99.90;;;;;;6158375;23;20018;-79
2022/11/21 03:44:08;;;;;;;39.72;26.38;;;6.40;99.90;;;;;;6158905;23;20017;-81
2022/11/21 03:46:37;;;;;;;44.63;26.85;;;6.40;99.90;;;;;;6122643;23;20026;-79
2022/11/21 03:49:07;;;;;;;39.63;25.83;;;6.40;99.90;;;;;;6157989;23;20022;-80
2022/11/21 03:51:35;;;;;;;40.55;25.95;;;6.40;99.90;;;;;;6158577;23;20068;-81
2022/11/21 03:54:03;;;;;;;39.42;27.20;;;6.40;99.90;;;;;;6159912;22;20503;-79
2022/11/21 03:56:31;;;;;;;42.67;26.77;;;6.40;99.90;;;;;;6158769;23;20514;-80
2022/11/21 03:58:58;;;;;;;42.20;25.88;;;6.40;99.90;;;;;;6158046;23;20013;-80
2022/11/21 04:01:26;;;;;;;43.53;25.58;;;6.30;99.90;;;;;;6164690;23;20017;-81
2022/11/21 04:03:53;;;;;;;42.45;26.88;;;6.30;99.90;;;;;;6176858;23;20044;-80
2022/11/21 04:06:22;;;;;;;41.92;26.23;;;6.30;99.90;;;;;;6176114;23;20017;-81
2022/11/21 04:08:50;;;;;;;46.53;28.02;;;6.40;99.90;;;;;;6170131;23;20051;-79
2022/11/21 04:11:20;;;;;;;45.13;28.80;;;6.30;99.90;;;;;;6158547;23;20070;-79
2022/11/21 04:13:48;;;;;;;46.03;28.67;;;6.40;99.90;;;;;;6159006;22;20013;-80
2022/11/21 04:16:15;;;;;;;48.25;30.05;;;6.40;99.90;;;;;;6158581;23;20021;-81
2022/11/21 04:18:42;;;;;;;47.55;28.80;;;6.40;99.90;;;;;;6161099;22;20045;-82
2022/11/21 04:21:09;;;;;;;48.22;27.80;;;6.50;99.90;;;;;;6161507;23;20032;-81
2022/11/21 04:23:38;;;;;;;43.80;28.08;;;6.50;99.90;;;;;;6160817;22;20022;-81
2022/11/21 04:26:07;;;;;;;47.25;27.63;;;6.50;99.90;;;;;;6166761;23;20025;-79
2022/11/21 04:28:34;;;;;;;42.25;26.98;;;6.50;99.90;;;;;;6158230;23;20017;-79
2022/11/21 04:31:05;;;;;;;43.65;26.55;;;6.50;99.90;;;;;;6159621;23;20460;-79
2022/11/21 04:33:33;;;;;;;41.72;26.35;;;6.50;99.90;;;;;;6124091;23;20026;-80
2022/11/21 04:36:00;;;;;;;43.83;26.88;;;6.40;99.90;;;;;;6159955;23;20021;-80
2022/11/21 04:38:28;;;;;;;42.10;27.42;;;6.40;99.90;;;;;;6159087;23;20521;-80
2022/11/21 04:40:56;;;;;;;40.38;25.75;;;6.40;99.90;;;;;;6158375;23;20456;-80
2022/11/21 04:43:24;;;;;;;41.28;26.23;;;6.50;99.90;;;;;;6158596;23;20059;-80
2022/11/21 04:45:51;;;;;;;40.33;26.45;;;6.50;99.90;;;;;;6163139;23;20018;-81
2022/11/21 04:48:18;;;;;;;38.10;25.48;;;6.50;99.90;;;;;;6165871;23;20044;-80
2022/11/21 04:50:46;;;;;;;44.20;28.02;;;6.50;99.90;;;;;;6158946;23;20571;-77
2022/11/21 04:53:13;;;;;;;41.45;27.75;;;6.60;99.90;;;;;;6123043;23;20092;-80
2022/11/21 04:55:41;;;;;;;43.05;27.70;;;6.60;99.90;;;;;;6158359;23;20463;-81
2022/11/21 04:58:09;;;;;;;44.00;29.08;;;6.60;99.90;;;;;;6158256;23;20024;-80
2022/11/21 05:00:37;;;;;;;44.72;28.52;;;6.60;99.90;;;;;;6158092;23;20025;-80
2022/11/21 05:03:05;;;;;;;43.75;27.35;;;6.60;99.90;;;;;;6157948;23;20017;-80
2022/11/21 05:05:33;;;;;;;41.47;27.75;;;6.60;99.90;;;;;;6158174;23;20088;-81
2022/11/21 05:08:00;;;;;;;45.83;28.20;;;6.60;99.90;;;;;;6157368;22;20381;-80
2022/11/21 05:10:27;;;;;;;42.33;28.75;;;6.60;99.90;;;;;;6157919;23;20513;-79
2022/11/21 05:15:44;;;;;;;43.65;28.80;;;6.70;99.90;;;;;;6158179;23;20022;-79
2022/11/21 05:18:13;;;;;;;47.88;30.65;;;6.70;99.90;;;;;;6157349;23;20333;-79
2022/11/21 05:20:40;;;;;;;43.58;28.60;;;6.80;99.90;;;;;;6158337;22;20018;-81
2022/11/21 05:23:07;;;;;;;43.97;28.85;;;6.80;99.90;;;;;;6157975;23;20013;-80
2022/11/21 05:25:35;;;;;;;48.10;29.35;;;6.80;99.90;;;;;;6158062;23;20051;-80
2022/11/21 05:28:02;;;;;;;46.88;30.73;;;6.90;99.90;;;;;;6157203;23;20044;-80
2022/11/21 05:30:29;;;;;;;44.40;30.10;;;6.90;99.90;;;;;;6122145;23;20018;-80
2022/11/21 05:32:58;;;;;;;45.15;30.52;;;6.90;99.90;;;;;;6158389;23;20021;-80
2022/11/21 05:35:25;;;;;;;46.53;29.27;;;6.90;99.90;;;;;;6157780;23;20088;-79
2022/11/21 05:37:56;;;;;;;45.85;31.42;;;6.90;99.90;;;;;;6157080;23;20028;-79
2022/11/21 05:40:23;;;;;;;48.28;30.13;;;6.90;99.90;;;;;;6157790;22;20318;-80
2022/11/21 05:45:35;;;;;;;48.60;30.52;;;6.90;99.90;;;;;;6158245;23;20029;-78
2022/11/21 05:48:06;;;;;;;50.25;32.08;;;6.90;99.90;;;;;;6157232;22;20029;-81
2022/11/21 05:50:35;;;;;;;45.50;29.60;;;6.90;99.90;;;;;;6157774;23;20036;-79
2022/11/21 05:53:03;;;;;;;46.78;30.55;;;6.90;99.90;;;;;;6157893;23;20270;-79
2022/11/21 05:55:31;;;;;;;44.40;29.45;;;6.80;99.90;;;;;;6157584;22;20016;-79
2022/11/21 05:57:59;;;;;;;45.22;29.63;;;6.90;99.90;;;;;;6157027;23;20028;-79
2022/11/21 06:00:27;;;;;;;44.50;31.50;;;6.90;99.90;;;;;;6157382;23;20022;-80
2022/11/21 06:05:41;;;;;;;44.60;30.30;;;7.00;99.90;;;;;;6157732;23;20453;-79
2022/11/21 06:08:09;;;;;;;49.03;30.38;;;7.00;99.90;;;;;;6156729;23;20450;-80
2022/11/21 06:10:36;;;;;;;45.00;31.20;;;7.10;99.90;;;;;;6157424;23;20017;-82
2022/11/21 06:13:20;;;;;;;44.72;28.95;;;7.00;99.90;;;;;;6157893;23;20010;-80
2022/11/21 06:15:52;;;;;;;44.20;28.88;;;7.00;99.90;;;;;;6122137;23;20021;-80
2022/11/21 06:18:20;;;;;;;46.33;31.67;;;6.90;99.90;;;;;;6157919;22;20079;-81
2022/11/21 06:20:49;;;;;;;51.70;35.42;;;6.90;99.90;;;;;;6160450;23;20017;-81
2022/11/21 06:23:17;;;;;;;57.78;37.90;;;7.00;99.90;;;;;;6174074;22;20021;-80
2022/11/21 06:25:44;;;;;;;38.08;25.52;;;7.00;99.90;;;;;;6182764;23;20013;-81
2022/11/21 06:28:11;;;;;;;41.90;27.67;;;7.00;99.90;;;;;;6177955;22;20021;-79
2022/11/21 06:30:39;;;;;;;40.08;28.08;;;7.00;99.90;;;;;;6158269;23;20024;-78
2022/11/21 06:33:07;;;;;;;43.03;28.40;;;7.00;99.90;;;;;;6158485;23;20010;-82
2022/11/21 06:35:39;;;;;;;42.35;28.92;;;7.00;99.90;;;;;;6157846;23;20018;-81
2022/11/21 06:38:07;;;;;;;45.38;29.30;;;7.00;99.90;;;;;;6120965;23;20101;-80
2022/11/21 06:40:35;;;;;;;46.42;30.50;;;7.10;99.90;;;;;;6157576;23;20029;-78
2022/11/21 06:43:02;;;;;;;45.40;30.35;;;7.10;99.90;;;;;;6122021;23;20051;-79
2022/11/21 06:45:29;;;;;;;56.13;37.55;;;7.10;99.90;;;;;;6157802;23;20091;-80
2022/11/21 06:47:56;;;;;;;61.42;42.30;;;7.20;99.90;;;;;;6121462;23;20017;-80
2022/11/21 06:50:24;;;;;;;69.00;45.75;;;7.10;99.90;;;;;;6158125;23;20022;-79
2022/11/21 06:52:51;;;;;;;65.57;43.10;;;7.20;99.90;;;;;;6158504;23;20474;-79
2022/11/21 06:55:20;;;;;;;57.72;38.78;;;7.20;99.90;;;;;;6162046;23;20017;-78
2022/11/21 06:57:47;;;;;;;56.00;36.50;;;7.20;99.90;;;;;;6170401;23;20092;-80
2022/11/21 07:00:16;;;;;;;62.95;41.78;;;7.20;99.90;;;;;;6160403;23;20013;-80
2022/11/21 07:02:43;;;;;;;60.40;40.15;;;7.30;99.90;;;;;;6148533;23;20083;-79
2022/11/21 07:05:10;;;;;;;53.78;37.38;;;7.30;99.90;;;;;;6157598;23;20029;-79
2022/11/21 07:07:38;;;;;;;53.55;35.88;;;7.40;99.90;;;;;;6156767;23;20520;-77
2022/11/21 07:10:05;;;;;;;59.58;40.67;;;7.40;99.90;;;;;;6157244;23;20013;-80
2022/11/21 07:15:19;;;;;;;;;;;7.40;99.90;;;;;;6157753;23;20021;-78
2022/11/21 07:17:46;;;;;;;76.72;51.25;;;7.40;99.90;;;;;;6157808;23;19970;-79
2022/11/21 07:20:14;;;;;;;77.00;52.08;;;7.40;99.90;;;;;;6158673;23;20024;-78
2022/11/21 07:22:42;;;;;;;80.20;54.15;;;7.40;99.90;;;;;;6158967;23;20017;-80
2022/11/21 07:25:09;;;;;;;99.03;65.72;;;7.40;99.90;;;;;;6122522;23;20705;-78
2022/11/21 07:27:38;;;;;;;93.47;62.17;;;7.30;99.90;;;;;;6157877;23;20014;-79
2022/11/21 07:30:07;;;;;;;76.43;49.67;;;7.40;99.90;;;;;;6159588;22;20021;-79
2022/11/21 07:32:34;;;;;;;81.30;50.05;;;7.40;99.90;;;;;;6158174;23;20075;-79
2022/11/21 07:35:07;;;;;;;74.22;46.58;;;7.40;99.90;;;;;;6164079;23;20047;-86
2022/11/21 07:37:38;;;;;;;58.42;39.97;;;7.50;99.90;;;;;;6159918;23;20044;-81
2022/11/21 07:40:08;;;;;;;52.60;34.70;;;7.50;99.90;;;;;;6158801;23;20473;-79
2022/11/21 07:42:35;;;;;;;59.05;38.13;;;7.40;99.90;;;;;;6122637;23;20041;-78
2022/11/21 07:45:04;;;;;;;57.10;38.75;;;7.50;99.90;;;;;;6158928;23;20018;-78
2022/11/21 07:47:32;;;;;;;59.03;40.42;;;7.40;99.90;;;;;;6157563;23;20446;-78
2022/11/21 07:49:59;;;;;;;57.83;39.20;;;7.40;99.90;;;;;;6122362;23;20021;-81
2022/11/21 07:52:29;;;;;;;59.17;38.53;;;7.40;99.90;;;;;;6157951;23;20074;-79
2022/11/21 07:54:56;;;;;;;55.13;37.35;;;7.40;99.90;;;;;;6158287;23;20018;-82
2022/11/21 07:57:24;;;;;;;54.72;38.03;;;7.50;99.90;;;;;;6157666;23;20075;-80
2022/11/21 07:59:51;;;;;;;58.75;38.28;;;7.50;99.90;;;;;;6149651;22;20013;-79
2022/11/21 08:02:21;;;;;;;52.50;34.88;;;7.60;99.90;;;;;;6158094;23;20021;-81
2022/11/21 08:04:49;;;;;;;54.45;35.85;;;7.70;99.90;;;;;;6158348;23;20013;-79
2022/11/21 08:07:16;;;;;;;52.13;36.13;;;7.80;99.90;;;;;;6160769;23;20033;-79
2022/11/21 08:09:44;;;;;;;46.08;31.92;;;8.00;99.90;;;;;;6159171;23;20017;-80
2022/11/21 08:12:11;;;;;;;42.58;29.60;;;8.00;99.90;;;;;;6158198;23;20018;-79
2022/11/21 08:14:39;;;;;;;38.78;27.70;;;8.00;99.90;;;;;;6158321;23;20018;-78
2022/11/21 08:17:07;;;;;;;47.33;31.58;;;7.70;99.90;;;;;;6158995;23;20021;-81
2022/11/21 08:19:36;;;;;;;41.45;28.10;;;7.70;99.90;;;;;;6158176;23;20150;-80
2022/11/21 08:22:04;;;;;;;48.45;30.77;;;7.80;99.90;;;;;;6122410;23;20033;-81
2022/11/21 08:24:31;;;;;;;48.17;31.52;;;7.80;99.90;;;;;;6158096;23;20514;-79
2022/11/21 08:27:00;;;;;;;46.78;31.58;;;7.80;99.90;;;;;;6157200;23;20361;-80
2022/11/21 08:29:27;;;;;;;49.72;31.08;;;7.70;99.90;;;;;;6158424;23;20357;-80
2022/11/21 08:31:54;;;;;;;46.60;32.55;;;7.60;99.90;;;;;;6158149;23;20026;-79
2022/11/21 08:34:22;;;;;;;46.72;32.33;;;7.40;99.90;;;;;;6158107;23;20518;-79
2022/11/21 08:36:52;;;;;;;52.47;35.25;;;7.30;99.90;;;;;;6157674;23;20089;-80
2022/11/21 08:39:19;;;;;;;58.08;35.80;;;7.30;99.90;;;;;;6158592;23;20623;-80
2022/11/21 08:42:05;;;;;;;68.00;38.65;;;7.40;99.90;;;;;;6157596;23;20021;-81
2022/11/21 08:44:33;;;;;;;64.43;37.50;;;7.40;99.90;;;;;;6158629;23;20013;-79
2022/11/21 08:47:01;;;;;;;79.35;42.30;;;7.30;99.90;;;;;;6157392;23;20434;-79
2022/11/21 08:49:29;;;;;;;72.15;41.17;;;7.20;99.90;;;;;;6122936;23;20067;-79
2022/11/21 08:51:59;;;;;;;74.55;41.40;;;7.10;99.90;;;;;;6158231;23;20018;-79
2022/11/21 08:54:26;;;;;;;68.78;42.45;;;7.10;99.90;;;;;;6122722;23;20026;-80
2022/11/21 08:56:54;;;;;;;75.60;44.53;;;7.10;99.90;;;;;;6156857;23;20017;-79
2022/11/21 08:59:21;;;;;;;78.57;44.25;;;7.20;99.90;;;;;;6158076;23;20010;-80
2022/11/21 09:01:48;;;;;;;84.80;42.78;;;7.30;99.90;;;;;;6158457;23;20014;-81
2022/11/21 09:04:15;;;;;;;77.40;43.35;;;7.40;99.90;;;;;;6157739;22;20022;-81
2022/11/21 09:06:43;;;;;;;96.50;50.13;;;7.60;99.90;;;;;;6158187;22;20519;-82
2022/11/21 09:09:12;;;;;;;104.53;51.53;;;7.60;99.90;;;;;;6131641;23;20026;-83
2022/11/21 09:11:40;;;;;;;99.03;49.90;;;7.60;99.90;;;;;;6158297;22;20017;-79
2022/11/21 09:19:40;;;;;;;129.48;58.85;;;7.90;99.90;;;;;;6109684;23;20025;-79
2022/11/21 09:22:08;;;;;;;145.35;64.68;;;7.80;99.90;;;;;;6162157;23;20022;-81
2022/11/21 09:24:36;;;;;;;145.20;63.85;;;7.90;99.90;;;;;;6163378;23;20063;-79
2022/11/21 09:27:04;;;;;;;157.88;63.00;;;8.10;99.90;;;;;;6167305;22;20018;-81
2022/11/21 09:29:31;;;;;;;176.55;71.72;;;8.20;99.90;;;;;;6159896;23;20014;-81
2022/11/21 09:31:59;;;;;;;165.18;64.45;;;8.30;99.90;;;;;;6129068;23;20017;-80
2022/11/21 09:34:26;;;;;;;163.05;67.00;;;8.40;99.90;;;;;;6164138;23;20014;-80
2022/11/21 09:36:54;;;;;;;168.88;70.13;;;8.50;99.90;;;;;;6159441;23;20013;-81
2022/11/21 09:39:21;;;;;;;155.20;62.30;;;8.50;99.90;;;;;;6158098;23;20044;-82
2022/11/21 09:42:02;;;;;;;160.93;64.28;;;8.50;99.90;;;;;;6159015;23;20017;-81
2022/11/21 09:44:58;;;;;;;160.73;65.05;;;8.50;99.90;;;;;;6159290;22;20022;-81
2022/11/21 09:47:27;;;;;;;159.95;65.13;;;8.50;99.90;;;;;;6157349;23;20025;-79
2022/11/21 09:49:59;;;;;;;147.05;60.33;;;8.60;99.90;;;;;;6158133;23;20021;-80
2022/11/21 09:52:32;;;;;;;134.52;59.20;;;8.70;99.90;;;;;;6123058;23;20071;-82
2022/11/21 09:55:05;;;;;;;118.38;50.80;;;8.70;99.90;;;;;;6158103;23;20022;-81
2022/11/21 09:57:35;;;;;;;105.82;49.50;;;8.60;99.90;;;;;;6156919;23;20018;-79
2022/11/21 10:00:14;;;;;;;98.13;44.28;;;8.40;99.90;;;;;;6158877;22;20013;-83
2022/11/21 10:02:42;;;;;;;89.55;43.30;;;8.20;99.90;;;;;;6169062;22;20013;-81
2022/11/21 10:05:13;;;;;;;104.75;50.30;;;8.10;99.90;;;;;;6168066;23;20018;-80
2022/11/21 10:07:42;;;;;;;103.57;48.88;;;7.90;99.90;;;;;;6125290;23;20033;-82
2022/11/21 10:10:32;;;;;;;93.85;44.63;;;7.80;99.90;;;;;;6158107;22;20450;-82
2022/11/21 10:13:19;;;;;;;96.85;46.13;;;7.70;99.90;;;;;;6157991;23;20430;-80
2022/11/21 10:16:00;;;;;;;95.35;45.85;;;7.70;99.90;;;;;;6134143;23;20044;-80
2022/11/21 10:18:54;;;;;;;101.82;44.78;;;7.80;99.90;;;;;;6167323;23;20029;-80
2022/11/21 10:21:38;;;;;;;130.63;54.42;;;7.90;99.90;;;;;;6159735;22;20013;-79
2022/11/21 10:24:22;;;;;;;125.85;52.80;;;8.00;99.90;;;;;;6158210;23;20010;-78
2022/11/21 10:26:55;;;;;;;115.43;52.53;;;8.10;99.90;;;;;;6162323;23;20017;-82
2022/11/21 10:29:30;;;;;;;95.72;45.83;;;8.10;99.90;;;;;;6158030;23;20032;-80
2022/11/21 10:32:02;;;;;;;88.00;41.25;;;8.20;99.90;;;;;;6122716;23;20021;-79
2022/11/21 10:34:32;;;;;;;86.55;40.70;;;8.20;99.90;;;;;;6157468;22;20017;-81
2022/11/21 10:37:09;;;;;;;91.80;44.78;;;8.10;99.90;;;;;;6156922;23;20017;-77
2022/11/21 10:39:41;;;;;;;82.03;41.88;;;8.00;99.90;;;;;;6122225;23;20029;-78
2022/11/21 10:42:30;;;;;;;75.53;40.45;;;8.10;99.90;;;;;;6159136;23;20018;-79
2022/11/21 10:45:15;;;;;;;71.97;36.88;;;8.20;99.90;;;;;;6157982;23;20084;-80
2022/11/21 10:47:43;;;;;;;83.72;47.33;;;8.20;99.90;;;;;;6156308;23;20017;-78
2022/11/21 10:50:22;;;;;;;60.92;33.05;;;8.20;99.90;;;;;;6158169;23;20315;-80
2022/11/21 10:53:00;;;;;;;59.92;33.53;;;8.20;99.90;;;;;;6158946;23;20013;-81
2022/11/21 10:55:27;;;;;;;66.15;36.38;;;8.20;99.90;;;;;;6159044;23;20017;-79
2022/11/21 10:57:54;;;;;;;69.00;35.25;;;8.10;99.90;;;;;;6136637;23;20037;-78
2022/11/21 11:00:25;;;;;;;66.22;33.13;;;8.20;99.90;;;;;;6158939;22;20047;-79
2022/11/21 11:03:04;;;;;;;73.72;40.78;;;8.30;99.90;;;;;;6159091;23;20414;-80
2022/11/21 11:05:33;;;;;;;66.30;34.33;;;8.40;99.90;;;;;;6159514;23;20369;-82
2022/11/21 11:08:05;;;;;;;57.88;33.83;;;8.50;99.90;;;;;;6160463;22;20041;-81
2022/11/21 11:10:35;;;;;;;58.53;32.45;;;8.50;99.90;;;;;;6160988;23;20018;-80
2022/11/21 11:16:01;;;;;;;57.97;30.98;;;8.70;99.90;;;;;;6168959;23;20556;-81
2022/11/21 11:18:29;;;;;;;57.45;31.92;;;8.70;99.90;;;;;;6168694;23;20071;-81
2022/11/21 11:21:13;;;;;;;55.33;31.50;;;8.60;99.90;;;;;;6167201;23;20021;-80
2022/11/21 11:23:41;;;;;;;51.20;29.88;;;8.70;99.90;;;;;;6163579;23;20434;-78
2022/11/21 11:26:21;;;;;;;53.78;30.92;;;8.70;99.90;;;;;;6158859;23;20021;-78
2022/11/21 11:28:49;;;;;;;56.55;31.25;;;8.70;99.90;;;;;;6157633;23;20029;-80
2022/11/21 11:31:18;;;;;;;52.28;31.17;;;8.70;99.90;;;;;;6158867;22;20048;-78
2022/11/21 11:33:54;;;;;;;52.60;32.58;;;8.70;99.90;;;;;;6158675;23;20019;-79
2022/11/21 11:36:31;;;;;;;;;;;8.70;99.90;;;;;;6159162;22;20017;-78
2022/11/21 11:39:00;;;;;;;57.13;32.38;;;8.80;99.90;;;;;;6158397;23;19920;-79
2022/11/21 11:47:35;;;;;;;51.63;28.80;;;8.50;99.90;;;;;;6157569;23;20140;-79
2022/11/21 11:50:12;;;;;;;42.35;26.48;;;8.40;99.90;;;;;;6158237;23;20438;-79
2022/11/21 11:52:50;;;;;;;45.88;26.85;;;8.40;99.90;;;;;;6158392;23;20017;-79
2022/11/21 11:55:22;;;;;;;49.63;28.35;;;8.50;99.90;;;;;;6158772;22;20043;-78
2022/11/21 11:57:52;;;;;;;49.53;28.38;;;8.50;99.90;;;;;;6157933;23;20021;-79
2022/11/21 12:00:32;;;;;;;49.35;28.90;;;8.60;99.90;;;;;;6158183;23;20017;-81
2022/11/21 12:03:10;;;;;;;46.35;29.05;;;8.70;99.90;;;;;;6157991;23;20014;-78
2022/11/21 12:05:44;;;;;;;48.50;28.35;;;8.70;99.90;;;;;;6157816;23;20021;-79
2022/11/21 12:08:20;;;;;;;50.67;29.23;;;8.50;99.90;;;;;;6158006;23;20014;-79
2022/11/21 12:14:11;;;;;;;56.17;33.60;;;8.60;99.90;;;;;;6159169;23;20048;-79
2022/11/21 12:16:40;;;;;;;58.80;34.25;;;8.60;99.90;;;;;;6158288;23;20052;-78
2022/11/21 12:19:15;;;;;;;58.30;33.42;;;8.70;99.90;;;;;;6157648;22;20022;-78
2022/11/21 12:21:42;;;;;;;59.83;35.30;;;8.60;99.90;;;;;;6158850;23;20116;-79
2022/11/21 12:24:12;;;;;;;68.50;42.25;;;8.70;99.90;;;;;;6158839;23;20009;-79
2022/11/21 12:26:54;;;;;;;63.97;38.85;;;8.60;99.90;;;;;;6158960;23;20017;-78
2022/11/21 12:29:45;;;;;;;55.33;34.00;;;8.50;99.90;;;;;;6162904;23;20025;-78
2022/11/21 12:32:30;;;;;;;50.70;32.47;;;8.60;99.90;;;;;;6158323;23;20018;-78
2022/11/21 12:35:19;;;;;;;55.58;34.53;;;8.60;99.90;;;;;;6158510;23;20563;-79
2022/11/21 12:37:55;;;;;;;67.18;38.30;;;8.60;99.90;;;;;;6157503;23;20024;-78
2022/11/21 12:40:29;;;;;;;;;;;8.40;99.90;;;;;;6158765;23;20457;-79
2022/11/21 12:43:06;;;;;;;62.30;38.20;;;8.50;99.90;;;;;;6158445;23;19917;-77
2022/11/21 12:45:36;;;;;;;56.42;36.67;;;8.50;99.90;;;;;;6158983;23;20017;-78
2022/11/21 12:55:02;;;;;;;57.08;37.60;;;8.50;99.90;;;;;;6133367;23;20052;-79
2022/11/21 12:57:43;;;;;;;58.10;37.33;;;8.50;99.90;;;;;;6170253;23;20014;-78
2022/11/21 13:00:20;;;;;;;57.88;36.45;;;8.40;99.90;;;;;;6132304;23;20022;-80
2022/11/21 13:03:17;;;;;;;59.03;37.47;;;8.40;99.90;;;;;;6121926;23;20025;-77
2022/11/21 13:05:49;;;;;;;62.58;40.28;;;8.40;99.90;;;;;;6157942;23;20040;-77
2022/11/21 13:08:22;;;;;;;64.13;40.03;;;8.40;99.90;;;;;;6157435;23;20442;-78
2022/11/21 13:11:57;;;;;;;63.08;38.97;;;8.40;99.90;;;;;;6157953;22;20052;-79
2022/11/21 13:13:47;;;;;;;65.07;41.58;;;8.50;99.90;;;;;;6157530;23;20039;-79
2022/11/21 13:16:35;;;;;;;68.07;41.13;;;8.40;99.90;;;;;;6159391;23;20017;-78
2022/11/21 13:19:18;;;;;;;72.72;45.05;;;8.40;99.90;;;;;;6157024;23;20021;-78
2022/11/21 13:21:48;;;;;;;70.63;45.10;;;8.30;99.90;;;;;;6157943;23;20087;-78
2022/11/21 13:24:48;;;;;;;65.07;42.35;;;8.20;99.90;;;;;;6157912;23;20013;-77
2022/11/21 13:27:29;;;;;;;65.07;41.00;;;8.30;99.90;;;;;;6157288;23;20024;-77
2022/11/21 13:30:20;;;;;;;70.38;43.45;;;8.30;99.90;;;;;;6158947;23;20021;-79